Time;durP1;ratioP1;P1;durP2;ratioP2;P2;SDS_P1;SDS_P2;PMS_P1;PMS_P2;Temp;Humidity;BMP_temperature;BMP_pressure;BME280_temperature;BME280_humidity;BME280_pressure;Samples;Min_cycle;Max_cycle;Signal;HPM_P1;HPM_P2
2022/07/26 00:00:55;;;;;;;;;;;;;;;30.21;40.83;100500.88;105241;1298;61377;-82
2022/07/26 00:03:20;;;;;;;;;;;;;;;30.21;40.65;100497.94;105344;1298;61362;-82
2022/07/26 00:05:46;;;;;;;;;;;;;;;30.21;40.75;100498.86;105264;1299;61256;-82
2022/07/26 00:08:11;;;;;;;;;;;;;;;30.21;40.70;100497.95;105384;1300;61246;-82
2022/07/26 00:10:41;;;;;;;;;;;;;;;30.21;40.60;100495.30;105226;1299;75714;-82
2022/07/26 00:13:06;;;;;;;;;;;;;;;30.20;40.74;100496.59;105282;1299;61543;-82
2022/07/26 00:15:32;;;;;;;;;;;;;;;30.21;40.64;100491.81;105338;1300;61284;-82
2022/07/26 00:17:57;;;;;;;;;;;;;;;30.21;40.74;100493.66;105297;1300;61284;-82
2022/07/26 00:20:23;;;;;;;;;;;;;;;30.20;40.73;100493.87;105306;1299;61972;-82
2022/07/26 00:22:48;;;;;;;;;;;;;;;30.20;40.70;100491.14;105336;1300;61306;-82
2022/07/26 00:25:13;;;;;;;;;;;;;;;30.20;40.71;100490.27;105334;1300;61381;-82
2022/07/26 00:27:39;;;;;;;;;;;;;;;30.20;40.78;100487.23;105333;1298;61273;-82
2022/07/26 00:30:05;;;;;;;;;;;;;;;30.20;40.73;100490.30;105293;1300;61236;-82
2022/07/26 00:32:31;;;;;;;;;;;;;;;30.20;40.75;100489.40;105297;1300;61266;-82
2022/07/26 00:34:56;;;;;;;;;;;;;;;30.20;40.86;100487.77;105317;1300;61294;-82
2022/07/26 00:37:22;;;;;;;;;;;;;;;30.19;40.71;100486.55;105334;1300;61260;-82
2022/07/26 00:39:48;;;;;;;;;;;;;;;30.19;40.69;100484.70;105347;1299;61290;-82
2022/07/26 00:42:13;;;;;;;;;;;;;;;30.19;40.84;100486.20;105367;1300;61370;-82
2022/07/26 00:44:40;;;;;;;;;;;;;;;30.19;40.84;100484.02;105297;1300;61268;-82
2022/07/26 00:47:05;;;;;;;;;;;;;;;30.19;40.76;100481.69;105207;1300;61256;-82
2022/07/26 00:49:31;;;;;;;;;;;;;;;30.19;40.66;100482.39;105358;1300;61252;-82
2022/07/26 00:51:56;;;;;;;;;;;;;;;30.19;40.83;100477.91;105370;1300;61431;-82
2022/07/26 00:54:22;;;;;;;;;;;;;;;30.18;41.05;100481.55;105279;1300;75160;-82
2022/07/26 00:56:48;;;;;;;;;;;;;;;30.18;40.92;100479.76;105326;1300;61388;-82
2022/07/26 00:59:13;;;;;;;;;;;;;;;30.19;40.75;100480.83;105366;1300;61298;-82
2022/07/26 01:01:39;;;;;;;;;;;;;;;30.18;40.76;100482.84;105280;1300;61304;-82
2022/07/26 01:04:04;;;;;;;;;;;;;;;30.18;40.83;100482.86;105321;1300;61380;-82
2022/07/26 01:06:30;;;;;;;;;;;;;;;30.18;40.82;100478.29;105396;1300;61264;-84
2022/07/26 01:08:55;;;;;;;;;;;;;;;30.18;40.93;100479.79;105307;1300;61246;-82
2022/07/26 01:11:21;;;;;;;;;;;;;;;30.18;40.74;100476.00;105238;1300;61283;-82
2022/07/26 01:13:47;;;;;;;;;;;;;;;30.18;40.74;100476.55;105290;1300;61358;-83
2022/07/26 01:16:13;;;;;;;;;;;;;;;30.17;40.92;100474.95;105305;1300;61622;-83
2022/07/26 01:18:38;;;;;;;;;;;;;;;30.18;40.87;100473.84;105291;1299;61503;-83
2022/07/26 01:21:05;;;;;;;;;;;;;;;30.18;40.85;100470.21;105321;1300;61281;-83
2022/07/26 01:23:30;;;;;;;;;;;;;;;30.18;40.94;100472.58;105259;1300;61252;-83
2022/07/26 01:25:56;;;;;;;;;;;;;;;30.18;40.77;100468.59;105322;1300;62465;-83
2022/07/26 01:28:21;;;;;;;;;;;;;;;30.18;41.01;100463.14;105356;1300;61354;-83
2022/07/26 01:30:48;;;;;;;;;;;;;;;30.17;40.87;100462.47;105342;1299;61200;-82
2022/07/26 01:33:13;;;;;;;;;;;;;;;30.17;40.77;100462.09;105377;1300;61131;-82
2022/07/26 01:35:39;;;;;;;;;;;;;;;30.17;41.03;100458.86;105314;1299;61925;-82
2022/07/26 01:38:05;;;;;;;;;;;;;;;30.17;40.80;100457.28;105342;1300;61259;-82
2022/07/26 01:40:30;;;;;;;;;;;;;;;30.17;40.79;100458.15;105307;1299;73856;-81
2022/07/26 01:42:56;;;;;;;;;;;;;;;30.17;40.90;100454.71;105315;1298;60035;-82
2022/07/26 01:45:21;;;;;;;;;;;;;;;30.17;40.78;100450.20;105345;1300;61278;-82
2022/07/26 01:47:49;;;;;;;;;;;;;;;30.17;40.89;100447.48;105330;1300;61294;-82
2022/07/26 01:50:14;;;;;;;;;;;;;;;30.17;40.90;100448.05;105289;1300;71387;-81
2022/07/26 01:52:40;;;;;;;;;;;;;;;30.16;40.95;100448.42;105324;1300;61263;-81
2022/07/26 01:55:06;;;;;;;;;;;;;;;30.16;40.71;100450.27;105407;1300;61216;-81
2022/07/26 01:57:31;;;;;;;;;;;;;;;30.17;40.89;100450.06;105276;1299;61326;-81
2022/07/26 01:59:56;;;;;;;;;;;;;;;30.16;40.96;100449.59;105324;1300;61317;-81
2022/07/26 02:02:22;;;;;;;;;;;;;;;30.15;40.85;100447.60;105326;1300;61267;-81
2022/07/26 02:04:57;;;;;;;;;;;;;;;30.15;40.88;100452.50;105331;1299;61361;-82
2022/07/26 02:07:23;;;;;;;;;;;;;;;30.16;41.06;100451.41;105257;1300;61285;-82
2022/07/26 02:09:48;;;;;;;;;;;;;;;30.15;41.14;100453.98;105229;1300;61292;-82
2022/07/26 02:12:14;;;;;;;;;;;;;;;30.15;41.13;100452.33;105336;1299;61230;-81
2022/07/26 02:14:39;;;;;;;;;;;;;;;30.15;41.03;100451.82;105365;1298;61359;-81
2022/07/26 02:17:05;;;;;;;;;;;;;;;30.15;40.91;100451.63;105356;1299;61272;-81
2022/07/26 02:19:30;;;;;;;;;;;;;;;30.15;40.87;100447.67;105323;1300;61560;-81
2022/07/26 02:21:55;;;;;;;;;;;;;;;30.15;41.11;100452.42;105347;1300;61932;-82
2022/07/26 02:24:21;;;;;;;;;;;;;;;30.15;40.91;100448.05;105297;1299;61506;-82
2022/07/26 02:26:46;;;;;;;;;;;;;;;30.15;40.92;100451.36;105360;1299;61284;-82
2022/07/26 02:29:12;;;;;;;;;;;;;;;30.14;40.97;100449.94;105491;1299;61282;-82
2022/07/26 02:31:37;;;;;;;;;;;;;;;30.14;40.97;100453.02;105550;1300;61248;-82
2022/07/26 02:34:03;;;;;;;;;;;;;;;30.15;41.21;100451.49;105540;1300;61263;-81
2022/07/26 02:36:28;;;;;;;;;;;;;;;30.15;41.00;100453.16;105593;1300;61356;-82
2022/07/26 02:38:54;;;;;;;;;;;;;;;30.15;41.27;100451.96;105615;1300;61382;-82
2022/07/26 02:41:19;;;;;;;;;;;;;;;30.16;41.10;100449.04;105621;1298;61391;-82
2022/07/26 02:43:44;;;;;;;;;;;;;;;30.16;41.04;100453.19;105619;1300;61275;-82
2022/07/26 02:46:10;;;;;;;;;;;;;;;30.16;41.03;100453.19;105292;1300;61284;-82
2022/07/26 02:48:35;;;;;;;;;;;;;;;30.17;41.04;100453.67;105293;1300;61277;-82
2022/07/26 02:51:01;;;;;;;;;;;;;;;30.17;41.10;100455.98;105356;1300;61351;-82
2022/07/26 02:53:26;;;;;;;;;;;;;;;30.17;41.05;100456.48;105377;1300;61256;-81
2022/07/26 02:55:52;;;;;;;;;;;;;;;30.17;41.12;100457.82;105319;1300;61266;-81
2022/07/26 02:58:20;;;;;;;;;;;;;;;30.16;41.08;100457.13;105334;1300;61291;-81
2022/07/26 03:00:45;;;;;;;;;;;;;;;30.16;40.99;100460.60;105309;1300;73780;-81
2022/07/26 03:03:13;;;;;;;;;;;;;;;30.16;41.11;100462.81;105272;1299;61258;-81
2022/07/26 03:05:38;;;;;;;;;;;;;;;30.16;40.99;100459.55;105307;1299;61291;-81
2022/07/26 03:08:04;;;;;;;;;;;;;;;30.16;40.98;100463.23;105306;1299;61439;-81
2022/07/26 03:10:30;;;;;;;;;;;;;;;30.15;40.90;100458.77;105337;1300;61390;-81
2022/07/26 03:12:55;;;;;;;;;;;;;;;30.15;40.99;100461.29;105256;1300;61469;-81
2022/07/26 03:15:21;;;;;;;;;;;;;;;30.15;41.03;100463.67;105356;1300;61275;-81
2022/07/26 03:17:46;;;;;;;;;;;;;;;30.14;41.03;100460.11;105212;1300;61136;-81
2022/07/26 03:20:12;;;;;;;;;;;;;;;30.14;41.09;100459.93;105267;1300;61371;-81
2022/07/26 03:22:37;;;;;;;;;;;;;;;30.14;41.03;100461.73;105229;1300;61217;-81
2022/07/26 03:25:03;;;;;;;;;;;;;;;30.14;41.09;100461.94;105271;1300;61382;-81
2022/07/26 03:27:28;;;;;;;;;;;;;;;30.14;41.05;100459.63;105327;1300;61691;-81
2022/07/26 03:29:54;;;;;;;;;;;;;;;30.14;40.96;100459.39;105307;1300;61295;-81
2022/07/26 03:32:19;;;;;;;;;;;;;;;30.13;41.17;100456.58;105274;1300;61370;-81
2022/07/26 03:34:45;;;;;;;;;;;;;;;30.13;41.10;100456.95;105229;1300;61267;-81
2022/07/26 03:37:11;;;;;;;;;;;;;;;30.13;41.00;100453.52;105287;1299;61356;-81
2022/07/26 03:39:37;;;;;;;;;;;;;;;30.13;41.10;100453.34;105342;1299;61255;-81
2022/07/26 03:42:03;;;;;;;;;;;;;;;30.13;41.28;100454.63;105365;1299;61264;-81
2022/07/26 03:44:30;;;;;;;;;;;;;;;30.13;40.99;100457.39;105279;1300;61270;-81
2022/07/26 03:46:55;;;;;;;;;;;;;;;30.13;41.14;100459.70;105277;1300;61282;-81
2022/07/26 03:49:21;;;;;;;;;;;;;;;30.13;41.11;100458.45;105244;1300;75844;-81
2022/07/26 03:51:46;;;;;;;;;;;;;;;30.13;41.24;100458.38;105263;1300;61393;-81
2022/07/26 03:54:11;;;;;;;;;;;;;;;30.13;41.15;100459.70;105366;1300;61240;-81
2022/07/26 03:56:37;;;;;;;;;;;;;;;30.13;41.23;100466.37;105251;1300;61277;-81
2022/07/26 03:59:04;;;;;;;;;;;;;;;30.13;41.37;100463.65;105292;1299;61933;-83
2022/07/26 04:01:30;;;;;;;;;;;;;;;30.13;41.15;100461.13;105319;1298;74870;-81
2022/07/26 04:03:55;;;;;;;;;;;;;;;30.13;41.19;100460.79;105301;1300;61269;-81
2022/07/26 04:06:20;;;;;;;;;;;;;;;30.13;41.11;100460.77;105255;1300;61294;-81
2022/07/26 04:08:46;;;;;;;;;;;;;;;30.13;41.10;100457.53;105236;1300;61310;-81
2022/07/26 04:11:11;;;;;;;;;;;;;;;30.13;41.16;100451.73;105395;1300;61335;-81
2022/07/26 04:13:37;;;;;;;;;;;;;;;30.14;41.14;100449.12;105299;1300;61361;-81
2022/07/26 04:16:02;;;;;;;;;;;;;;;30.13;41.09;100449.33;105267;1300;61285;-82
2022/07/26 04:18:28;;;;;;;;;;;;;;;30.13;41.14;100450.94;105273;1300;61220;-81
2022/07/26 04:20:53;;;;;;;;;;;;;;;30.13;41.07;100441.86;105224;1300;61284;-81
2022/07/26 04:23:19;;;;;;;;;;;;;;;30.15;41.21;100441.18;105280;1300;61326;-81
2022/07/26 04:25:44;;;;;;;;;;;;;;;30.14;41.25;100441.77;105332;1300;74740;-81
2022/07/26 04:28:10;;;;;;;;;;;;;;;30.15;41.25;100445.00;105334;1299;61253;-81
2022/07/26 04:30:35;;;;;;;;;;;;;;;30.15;41.29;100441.52;105247;1300;61361;-82
2022/07/26 04:33:02;;;;;;;;;;;;;;;30.15;41.32;100441.65;105259;1300;61237;-81
2022/07/26 04:35:27;;;;;;;;;;;;;;;30.15;41.18;100437.34;105199;1300;61377;-81
2022/07/26 04:37:53;;;;;;;;;;;;;;;30.15;41.28;100437.30;105218;1300;61387;-81
2022/07/26 04:40:19;;;;;;;;;;;;;;;30.15;41.20;100436.34;105303;1299;61396;-81
2022/07/26 04:42:44;;;;;;;;;;;;;;;30.16;41.30;100442.67;105255;1299;61229;-81
2022/07/26 04:45:11;;;;;;;;;;;;;;;30.16;41.12;100438.86;105264;1300;61255;-81
2022/07/26 04:47:40;;;;;;;;;;;;;;;30.16;41.37;100435.94;105353;1300;61921;-81
2022/07/26 04:50:05;;;;;;;;;;;;;;;30.16;41.41;100433.01;105364;1300;61456;-82
2022/07/26 04:52:31;;;;;;;;;;;;;;;30.16;41.28;100427.20;105258;1299;61310;-81
2022/07/26 04:54:56;;;;;;;;;;;;;;;30.17;41.33;100430.42;105327;1300;61280;-81
2022/07/26 04:57:22;;;;;;;;;;;;;;;30.17;41.34;100431.79;105245;1300;61364;-81
2022/07/26 04:59:47;;;;;;;;;;;;;;;30.18;41.20;100433.16;105270;1299;61423;-81
2022/07/26 05:02:14;;;;;;;;;;;;;;;30.18;41.20;100432.63;105312;1300;61296;-81
2022/07/26 05:04:41;;;;;;;;;;;;;;;30.18;41.20;100432.23;105263;1299;61797;-81
2022/07/26 05:07:07;;;;;;;;;;;;;;;30.19;41.16;100431.60;105330;1300;73049;-81
2022/07/26 05:09:32;;;;;;;;;;;;;;;30.20;41.16;100432.20;105359;1299;61147;-81
2022/07/26 05:11:58;;;;;;;;;;;;;;;30.21;41.38;100432.15;105266;1300;61170;-81
2022/07/26 05:14:23;;;;;;;;;;;;;;;30.22;41.18;100432.73;105265;1300;61277;-81
2022/07/26 05:16:49;;;;;;;;;;;;;;;30.21;41.26;100432.02;105368;1301;61300;-81
2022/07/26 05:19:14;;;;;;;;;;;;;;;30.22;41.19;100429.80;105359;1300;61330;-81
2022/07/26 05:21:40;;;;;;;;;;;;;;;30.22;41.17;100426.13;105344;1300;61435;-81
2022/07/26 05:24:05;;;;;;;;;;;;;;;30.22;41.28;100428.28;105335;1300;61251;-81
2022/07/26 05:26:31;;;;;;;;;;;;;;;30.23;40.99;100425.86;105256;1300;61271;-81
2022/07/26 05:28:57;;;;;;;;;;;;;;;30.24;41.18;100425.78;105265;1299;61223;-81
2022/07/26 05:31:23;;;;;;;;;;;;;;;30.24;41.03;100425.71;105230;1300;61179;-81
2022/07/26 05:33:48;;;;;;;;;;;;;;;30.24;41.08;100425.14;105309;1300;61364;-84
2022/07/26 05:36:14;;;;;;;;;;;;;;;30.25;41.10;100427.07;105242;1299;61217;-82
2022/07/26 05:38:39;;;;;;;;;;;;;;;30.25;41.04;100425.56;105278;1300;61390;-82
2022/07/26 05:41:05;;;;;;;;;;;;;;;30.26;40.96;100425.52;105254;1299;61307;-82
2022/07/26 05:43:30;;;;;;;;;;;;;;;30.26;41.02;100424.20;105125;1300;61279;-82
2022/07/26 05:45:56;;;;;;;;;;;;;;;30.27;40.86;100415.96;105332;1299;61241;-81
2022/07/26 05:48:22;;;;;;;;;;;;;;;30.27;40.80;100415.92;105205;1300;61154;-81
2022/07/26 05:50:47;;;;;;;;;;;;;;;30.28;40.85;100427.25;105274;1299;61354;-81
2022/07/26 05:53:12;;;;;;;;;;;;;;;30.28;40.64;100420.21;105201;1300;61407;-81
2022/07/26 05:55:38;;;;;;;;;;;;;;;30.29;40.65;100417.20;105220;1299;61239;-81
2022/07/26 05:58:03;;;;;;;;;;;;;;;30.30;40.75;100421.33;105334;1299;61391;-81
2022/07/26 06:00:29;;;;;;;;;;;;;;;30.30;40.65;100421.25;105197;1300;61296;-81
2022/07/26 06:02:54;;;;;;;;;;;;;;;30.31;40.74;100425.36;105179;1300;61252;-81
2022/07/26 06:05:20;;;;;;;;;;;;;;;30.31;40.77;100421.52;105128;1300;61266;-81
2022/07/26 06:07:45;;;;;;;;;;;;;;;30.31;40.69;100420.60;105202;1299;61454;-81
2022/07/26 06:10:11;;;;;;;;;;;;;;;30.32;40.61;100426.31;105304;1299;61429;-81
2022/07/26 06:12:36;;;;;;;;;;;;;;;30.32;40.55;100428.29;105281;1299;61266;-81
2022/07/26 06:15:02;;;;;;;;;;;;;;;30.33;40.56;100424.39;105179;1300;61272;-81
2022/07/26 06:17:28;;;;;;;;;;;;;;;30.32;40.36;100421.85;105246;1300;61310;-81
2022/07/26 06:19:55;;;;;;;;;;;;;;;30.33;40.52;100423.02;105266;1300;61301;-82
2022/07/26 06:22:20;;;;;;;;;;;;;;;30.34;40.43;100419.11;105110;1300;59343;-82
2022/07/26 06:24:45;;;;;;;;;;;;;;;30.35;40.37;100422.89;105169;1299;61281;-82
2022/07/26 06:27:11;;;;;;;;;;;;;;;30.35;40.27;100421.56;105251;1300;61281;-82
2022/07/26 06:29:36;;;;;;;;;;;;;;;30.36;40.30;100416.76;104533;1300;969323;-82
2022/07/26 06:32:02;;;;;;;;;;;;;;;30.36;40.26;100416.55;105317;1300;61332;-82
2022/07/26 06:34:27;;;;;;;;;;;;;;;30.37;40.18;100412.84;105313;1300;61297;-81
2022/07/26 06:36:53;;;;;;;;;;;;;;;30.37;40.05;100415.70;105272;1300;61276;-81
2022/07/26 06:39:18;;;;;;;;;;;;;;;30.38;40.12;100413.95;105386;1300;61377;-82
2022/07/26 06:41:44;;;;;;;;;;;;;;;30.39;40.14;100412.08;105097;1300;61304;-84
2022/07/26 06:44:09;;;;;;;;;;;;;;;30.39;40.11;100415.88;105253;1300;61249;-82
2022/07/26 06:46:35;;;;;;;;;;;;;;;30.39;40.07;100415.84;105279;1300;61412;-82
2022/07/26 06:49:01;;;;;;;;;;;;;;;30.39;40.07;100414.85;105305;1300;61243;-82
2022/07/26 06:51:26;;;;;;;;;;;;;;;30.39;40.15;100413.96;105362;1299;61265;-82
2022/07/26 06:53:52;;;;;;;;;;;;;;;30.40;39.86;100413.49;105256;1300;73209;-82
2022/07/26 06:56:18;;;;;;;;;;;;;;;30.40;39.99;100414.60;105270;1300;61208;-82
2022/07/26 06:58:44;;;;;;;;;;;;;;;30.40;40.01;100412.73;105298;1300;61396;-82
2022/07/26 07:01:09;;;;;;;;;;;;;;;30.40;39.87;100410.94;105229;1300;61309;-82
2022/07/26 07:03:35;;;;;;;;;;;;;;;30.41;39.88;100407.64;105323;1298;61269;-82
2022/07/26 07:06:00;;;;;;;;;;;;;;;30.41;39.82;100409.79;105287;1300;61357;-83
2022/07/26 07:08:26;;;;;;;;;;;;;;;30.42;39.72;100412.39;105332;1300;61281;-82
2022/07/26 07:10:51;;;;;;;;;;;;;;;30.41;39.88;100408.10;105257;1300;61265;-82
2022/07/26 07:13:17;;;;;;;;;;;;;;;30.42;39.71;100411.09;105327;1300;61223;-82
2022/07/26 07:15:43;;;;;;;;;;;;;;;30.42;39.78;100413.63;105238;1300;61355;-82
2022/07/26 07:18:08;;;;;;;;;;;;;;;30.42;39.73;100412.38;105344;1300;61296;-82
2022/07/26 07:20:34;;;;;;;;;;;;;;;30.42;39.64;100414.73;105186;1300;74870;-82
2022/07/26 07:22:59;;;;;;;;;;;;;;;30.43;39.64;100411.39;105035;1299;62053;-82
2022/07/26 07:25:26;;;;;;;;;;;;;;;30.43;39.81;100410.79;105082;1300;61310;-82
2022/07/26 07:27:51;;;;;;;;;;;;;;;30.43;39.73;100413.50;105101;1300;61283;-82
2022/07/26 07:30:17;;;;;;;;;;;;;;;30.44;39.65;100415.27;105109;1300;61316;-82
2022/07/26 07:32:42;;;;;;;;;;;;;;;30.44;39.75;100413.98;105109;1300;59835;-82
2022/07/26 07:35:08;;;;;;;;;;;;;;;30.45;39.76;100413.70;105086;1299;61457;-82
2022/07/26 07:37:34;;;;;;;;;;;;;;;30.46;39.71;100411.39;105269;1298;61272;-82
2022/07/26 07:40:03;;;;;;;;;;;;;;;30.46;39.59;100409.94;105156;1300;61303;-82
2022/07/26 07:42:28;;;;;;;;;;;;;;;30.47;39.70;100409.52;105181;1300;75961;-82
2022/07/26 07:44:54;;;;;;;;;;;;;;;30.47;39.62;100412.21;105235;1300;61288;-82
2022/07/26 07:47:20;;;;;;;;;;;;;;;30.47;39.54;100412.92;105142;1300;61294;-82
2022/07/26 07:49:46;;;;;;;;;;;;;;;30.48;39.66;100412.06;105516;1300;60037;-82
2022/07/26 07:52:12;;;;;;;;;;;;;;;30.48;39.56;100406.25;105083;1298;61277;-81
2022/07/26 07:54:37;;;;;;;;;;;;;;;30.49;39.55;100405.12;105062;1299;61281;-82
2022/07/26 07:57:03;;;;;;;;;;;;;;;30.50;39.52;100405.73;105087;1300;61274;-82
2022/07/26 07:59:28;;;;;;;;;;;;;;;30.50;39.53;100406.79;105172;1300;61746;-82
2022/07/26 08:01:54;;;;;;;;;;;;;;;30.51;39.61;100403.95;105143;1300;61257;-81
2022/07/26 08:04:19;;;;;;;;;;;;;;;30.51;39.49;100401.02;105118;1300;61307;-81
2022/07/26 08:06:45;;;;;;;;;;;;;;;30.51;39.55;100398.30;105283;1300;61217;-81
2022/07/26 08:09:10;;;;;;;;;;;;;;;30.52;39.41;100396.05;105362;1300;61262;-81
2022/07/26 08:11:36;;;;;;;;;;;;;;;30.51;39.42;100390.29;105112;1300;61281;-82
2022/07/26 08:14:02;;;;;;;;;;;;;;;30.51;39.39;100390.45;105002;1300;61368;-82
2022/07/26 08:16:28;;;;;;;;;;;;;;;30.52;39.42;100388.43;105198;1300;61268;-82
2022/07/26 08:18:53;;;;;;;;;;;;;;;30.51;39.47;100384.26;105242;1300;61287;-81
2022/07/26 08:21:19;;;;;;;;;;;;;;;30.51;39.44;100384.81;105221;1297;61275;-81
2022/07/26 08:23:44;;;;;;;;;;;;;;;30.51;39.41;100381.23;105266;1300;61267;-81
2022/07/26 08:26:10;;;;;;;;;;;;;;;30.51;39.45;100382.09;105104;1300;71043;-81
2022/07/26 08:28:35;;;;;;;;;;;;;;;30.51;39.43;100379.77;105244;1300;61380;-81
2022/07/26 08:31:01;;;;;;;;;;;;;;;30.51;39.39;100375.54;105220;1300;61377;-81
2022/07/26 08:33:27;;;;;;;;;;;;;;;30.51;39.32;100374.20;105276;1300;61265;-81
2022/07/26 08:35:52;;;;;;;;;;;;;;;30.51;39.47;100372.02;105246;1300;61398;-81
2022/07/26 08:38:18;;;;;;;;;;;;;;;30.51;39.36;100372.73;105299;1300;61244;-81
2022/07/26 08:40:43;;;;;;;;;;;;;;;30.50;39.43;100368.97;105321;1299;61415;-81
2022/07/26 08:43:10;;;;;;;;;;;;;;;30.50;39.33;100362.63;105248;1299;61202;-82
2022/07/26 08:45:35;;;;;;;;;;;;;;;30.50;39.38;100360.45;105277;1299;61282;-81
2022/07/26 08:48:01;;;;;;;;;;;;;;;30.50;39.29;100360.08;105243;1300;61278;-81
2022/07/26 08:50:27;;;;;;;;;;;;;;;30.50;39.45;100362.09;105272;1300;61294;-81
2022/07/26 08:52:54;;;;;;;;;;;;;;;30.50;39.41;100363.58;105338;1300;61374;-81
2022/07/26 08:55:19;;;;;;;;;;;;;;;30.50;39.44;100363.01;105278;1299;61287;-82
2022/07/26 08:57:45;;;;;;;;;;;;;;;30.50;39.45;100358.30;105351;1300;61254;-82
2022/07/26 09:00:18;;;;;;;;;;;;;;;30.50;39.40;100355.75;105265;1299;61231;-82
2022/07/26 09:02:44;;;;;;;;;;;;;;;30.50;39.45;100355.04;105328;1300;74795;-82
2022/07/26 09:05:09;;;;;;;;;;;;;;;30.50;39.45;100358.98;105344;1300;61268;-82
2022/07/26 09:07:35;;;;;;;;;;;;;;;30.50;39.48;100358.44;105268;1299;61261;-81
2022/07/26 09:10:08;;;;;;;;;;;;;;;30.51;39.47;100354.05;105297;1298;61275;-81
2022/07/26 09:12:33;;;;;;;;;;;;;;;30.50;39.33;100350.61;105283;1299;74807;-82
2022/07/26 09:14:59;;;;;;;;;;;;;;;30.51;39.38;100343.48;105291;1298;61268;-81
2022/07/26 09:17:36;;;;;;;;;;;;;;;30.51;39.57;100346.55;105246;1299;61410;-81
2022/07/26 09:20:12;;;;;;;;;;;;;;;30.51;39.39;100348.17;105294;1299;72878;-83
2022/07/26 09:22:38;;;;;;;;;;;;;;;30.51;39.38;100344.62;105274;1300;75711;-83
2022/07/26 09:25:17;;;;;;;;;;;;;;;30.51;39.36;100340.21;105269;1300;61304;-83
2022/07/26 09:27:43;;;;;;;;;;;;;;;30.51;39.32;100334.93;105279;1300;61131;-83
2022/07/26 09:30:09;;;;;;;;;;;;;;;30.51;39.46;100336.03;105249;1300;61437;-83
2022/07/26 09:32:35;;;;;;;;;;;;;;;30.51;39.38;100337.46;105243;1300;61288;-82
2022/07/26 09:35:16;;;;;;;;;;;;;;;30.52;39.49;100337.59;105357;1299;61948;-82
2022/07/26 09:37:42;;;;;;;;;;;;;;;30.51;39.50;100337.24;105290;1300;61308;-82
2022/07/26 09:40:09;;;;;;;;;;;;;;;30.51;39.39;100335.79;105264;1298;61172;-82
2022/07/26 09:42:35;;;;;;;;;;;;;;;30.52;39.49;100326.48;105138;1300;61142;-82
2022/07/26 09:45:00;;;;;;;;;;;;;;;30.51;39.32;100325.44;105276;1300;61326;-83
2022/07/26 09:47:38;;;;;;;;;;;;;;;30.52;39.44;100318.70;105276;1300;61345;-81
2022/07/26 09:50:07;;;;;;;;;;;;;;;30.52;39.33;100318.87;105276;1299;72925;-81
2022/07/26 09:52:33;;;;;;;;;;;;;;;30.52;39.43;100313.41;105338;1300;74675;-81
2022/07/26 09:54:58;;;;;;;;;;;;;;;30.51;39.38;100313.08;105276;1300;61394;-82
2022/07/26 09:57:24;;;;;;;;;;;;;;;30.52;39.50;100311.40;105306;1300;61285;-82
2022/07/26 09:59:49;;;;;;;;;;;;;;;30.51;39.40;100308.59;105292;1300;61341;-82
2022/07/26 10:02:14;;;;;;;;;;;;;;;30.51;39.41;100314.73;105370;1300;61242;-82
2022/07/26 10:04:40;;;;;;;;;;;;;;;30.52;39.44;100308.55;105353;1300;61281;-83
2022/07/26 10:07:06;;;;;;;;;;;;;;;30.52;39.38;100302.19;105303;1300;61243;-82
2022/07/26 10:09:33;;;;;;;;;;;;;;;30.51;39.43;100300.79;105064;1299;61323;-82
2022/07/26 10:12:01;;;;;;;;;;;;;;;30.52;39.62;100299.29;105342;1299;59294;-82
2022/07/26 10:14:29;;;;;;;;;;;;;;;30.52;39.41;100298.38;105186;1300;75880;-82
2022/07/26 10:16:55;;;;;;;;;;;;;;;30.51;39.53;100296.23;105127;1300;61296;-82
2022/07/26 10:19:36;;;;;;;;;;;;;;;30.52;39.48;100289.98;105365;1299;61282;-82
2022/07/26 10:22:21;;;;;;;;;;;;;;;30.52;39.39;100291.22;105328;1300;74056;-82
2022/07/26 10:24:47;;;;;;;;;;;;;;;30.52;39.47;100289.95;105276;1300;75645;-84
2022/07/26 10:27:32;;;;;;;;;;;;;;;30.52;39.52;100284.77;105292;1300;61307;-82
2022/07/26 10:30:16;;;;;;;;;;;;;;;30.51;39.39;100289.65;105241;1300;61226;-82
2022/07/26 10:33:01;;;;;;;;;;;;;;;30.51;39.36;100286.98;105333;1300;72742;-82
2022/07/26 10:35:31;;;;;;;;;;;;;;;30.52;39.45;100285.77;105250;1300;74808;-82
2022/07/26 10:37:57;;;;;;;;;;;;;;;30.52;39.48;100283.63;105318;1300;61245;-82
2022/07/26 10:40:28;;;;;;;;;;;;;;;30.52;39.52;100281.08;105338;1298;61271;-82
2022/07/26 10:43:26;;;;;;;;;;;;;;;30.52;39.68;100278.19;105362;1300;72641;-82
2022/07/26 10:46:03;;;;;;;;;;;;;;;30.51;39.45;100274.02;104855;1306;75599;-82
2022/07/26 10:48:29;;;;;;;;;;;;;;;30.52;39.54;100270.72;104743;1305;61416;-82
2022/07/26 10:50:54;;;;;;;;;;;;;;;30.52;39.54;100263.80;104744;1305;61305;-82
2022/07/26 10:53:22;;;;;;;;;;;;;;;30.52;39.63;100268.55;104734;1305;61384;-82
2022/07/26 10:55:54;;;;;;;;;;;;;;;30.52;39.47;100264.58;104773;1305;61939;-82
2022/07/26 10:58:20;;;;;;;;;;;;;;;30.51;39.41;100261.38;104863;1306;61359;-82
2022/07/26 11:00:56;;;;;;;;;;;;;;;30.51;39.54;100261.71;104843;1306;61260;-82
2022/07/26 11:03:21;;;;;;;;;;;;;;;30.51;39.42;100260.23;104831;1306;73600;-82
2022/07/26 11:05:47;;;;;;;;;;;;;;;30.52;39.53;100254.42;104838;1306;61329;-82
2022/07/26 11:08:12;;;;;;;;;;;;;;;30.52;39.61;100251.91;104798;1304;61394;-82
2022/07/26 11:10:45;;;;;;;;;;;;;;;30.52;39.50;100250.44;104850;1306;61259;-82
2022/07/26 11:13:10;;;;;;;;;;;;;;;30.51;39.51;100254.79;104824;1306;72911;-82
2022/07/26 11:15:36;;;;;;;;;;;;;;;30.51;39.48;100253.20;104816;1305;61266;-82
2022/07/26 11:18:09;;;;;;;;;;;;;;;30.51;39.50;100248.88;104825;1303;61326;-82
2022/07/26 11:20:36;;;;;;;;;;;;;;;30.51;39.58;100244.85;104879;1305;61189;-82
2022/07/26 11:23:01;;;;;;;;;;;;;;;30.51;39.69;100240.88;105163;1300;72796;-82
2022/07/26 11:25:27;;;;;;;;;;;;;;;30.51;39.47;100238.15;105175;1300;61857;-84
2022/07/26 11:27:57;;;;;;;;;;;;;;;30.51;39.57;100237.45;105242;1299;61252;-84
2022/07/26 11:30:23;;;;;;;;;;;;;;;30.51;39.57;100233.88;105230;1300;61916;-83
2022/07/26 11:32:52;;;;;;;;;;;;;;;30.50;39.57;100231.32;105185;1300;61297;-83
2022/07/26 11:35:18;;;;;;;;;;;;;;;30.50;39.60;100220.84;105203;1299;75151;-81
2022/07/26 11:37:56;;;;;;;;;;;;;;;30.50;39.65;100218.30;105255;1299;61284;-81
2022/07/26 11:40:41;;;;;;;;;;;;;;;30.50;39.64;100214.67;105217;1299;61312;-81
2022/07/26 11:43:06;;;;;;;;;;;;;;;30.51;39.57;100215.85;105250;1299;73838;-81
2022/07/26 11:45:32;;;;;;;;;;;;;;;30.51;39.59;100212.27;105235;1299;61210;-81
2022/07/26 11:47:59;;;;;;;;;;;;;;;30.50;39.59;100205.55;105205;1300;61289;-81
2022/07/26 11:50:24;;;;;;;;;;;;;;;30.51;39.51;100201.52;105249;1299;61277;-81
2022/07/26 11:52:50;;;;;;;;;;;;;;;30.51;39.60;100198.23;105204;1300;61374;-81
2022/07/26 11:55:29;;;;;;;;;;;;;;;30.52;39.54;100196.18;105135;1301;61391;-81
2022/07/26 11:57:55;;;;;;;;;;;;;;;30.51;39.68;100193.45;105193;1300;61282;-82
2022/07/26 12:00:22;;;;;;;;;;;;;;;30.51;39.51;100188.00;105262;1300;61361;-82
2022/07/26 12:02:47;;;;;;;;;;;;;;;30.52;39.57;100184.16;105183;1299;61271;-82
2022/07/26 12:05:14;;;;;;;;;;;;;;;30.52;39.64;100185.04;105254;1299;61261;-82
2022/07/26 12:07:51;;;;;;;;;;;;;;;30.52;39.56;100182.07;105176;1300;61294;-82
2022/07/26 12:10:16;;;;;;;;;;;;;;;30.53;39.58;100178.55;105219;1299;61153;-81
2022/07/26 12:12:42;;;;;;;;;;;;;;;30.53;39.60;100172.39;105147;1300;61732;-81
2022/07/26 12:15:07;;;;;;;;;;;;;;;30.53;39.53;100171.82;105211;1300;61300;-81
2022/07/26 12:17:33;;;;;;;;;;;;;;;30.54;39.62;100174.84;105145;1300;61304;-81
2022/07/26 12:20:15;;;;;;;;;;;;;;;30.54;39.68;100176.23;105189;1300;61438;-81
2022/07/26 12:22:41;;;;;;;;;;;;;;;30.54;39.69;100169.52;105220;1300;61287;-81